Time;durP1;ratioP1;P1;durP2;ratioP2;P2;SDS_P1;SDS_P2;PMS_P1;PMS_P2;Temp;Humidity;BMP_temperature;BMP_pressure;BME280_temperature;BME280_humidity;BME280_pressure;Samples;Min_cycle;Max_cycle;Signal;HPM_P1;HPM_P2
2021/07/10 00:00:37;;;;;;;16.17;9.98;;;;;13.00;100910.00;;;;5086131;28;20065;-77
2021/07/10 00:03:07;;;;;;;12.73;7.72;;;;;13.00;100924.00;;;;5085625;28;20463;-77
2021/07/10 00:05:34;;;;;;;15.40;9.75;;;;;12.90;100935.00;;;;5085969;28;20028;-75
2021/07/10 00:08:01;;;;;;;21.38;9.43;;;;;12.80;100933.00;;;;5086531;28;20028;-75
2021/07/10 00:10:28;;;;;;;23.85;12.23;;;;;12.80;100951.00;;;;5086855;28;20031;-75
2021/07/10 00:12:55;;;;;;;22.73;12.55;;;;;12.70;100925.00;;;;5087042;28;20479;-76
2021/07/10 00:15:24;;;;;;;18.48;14.00;;;;;12.90;100936.00;;;;5086152;28;20062;-77
2021/07/10 00:17:51;;;;;;;18.40;11.75;;;;;12.80;100954.00;;;;5086430;28;20421;-77
2021/07/10 00:20:18;;;;;;;30.13;13.40;;;;;12.80;100931.00;;;;5085592;28;20514;-76
2021/07/10 00:22:45;;;;;;;20.80;12.85;;;;;12.70;100945.00;;;;5098544;28;20512;-75
2021/07/10 00:25:15;;;;;;;12.95;9.80;;;;;12.70;100913.00;;;;5105611;28;20031;-77
2021/07/10 00:27:43;;;;;;;17.48;11.57;;;;;12.70;100923.00;;;;5106737;28;20027;-76
2021/07/10 00:30:11;;;;;;;13.50;10.15;;;;;12.90;100895.00;;;;5106154;28;20028;-77
2021/07/10 00:32:38;;;;;;;13.35;8.60;;;;;13.00;100925.00;;;;5106128;28;20035;-77
2021/07/10 00:35:07;;;;;;;11.63;7.65;;;;;12.90;100928.00;;;;5106278;28;20046;-77
2021/07/10 00:37:33;;;;;;;9.38;4.90;;;;;13.20;100928.00;;;;5104762;28;20107;-77
2021/07/10 00:40:00;;;;;;;6.50;4.82;;;;;13.10;100920.00;;;;5107229;28;20032;-76
2021/07/10 00:42:26;;;;;;;7.82;5.65;;;;;12.90;100947.00;;;;5109241;28;20032;-76
2021/07/10 00:44:53;;;;;;;8.77;6.22;;;;;12.80;100939.00;;;;5110220;28;20100;-76
2021/07/10 00:47:19;;;;;;;8.45;5.88;;;;;12.70;100943.00;;;;5109910;28;20034;-76
2021/07/10 00:49:46;;;;;;;12.68;6.00;;;;;12.80;100942.00;;;;5110539;28;20046;-75
2021/07/10 00:52:13;;;;;;;8.52;4.80;;;;;12.90;100929.00;;;;5110175;28;20149;-74
2021/07/10 00:54:40;;;;;;;16.48;5.80;;;;;12.90;100934.00;;;;5109977;28;20505;-75
2021/07/10 00:57:08;;;;;;;17.30;8.05;;;;;12.80;100965.00;;;;5109743;28;20088;-75
2021/07/10 00:59:36;;;;;;;15.43;6.80;;;;;12.80;100937.00;;;;5110170;28;20038;-75
2021/07/10 01:02:03;;;;;;;10.43;6.95;;;;;12.60;100928.00;;;;5109342;28;20407;-75
2021/07/10 01:04:30;;;;;;;16.13;6.85;;;;;12.60;100938.00;;;;5110733;28;20111;-77
2021/07/10 01:06:56;;;;;;;9.70;7.03;;;;;12.60;100936.00;;;;5109837;28;20047;-76
2021/07/10 01:09:23;;;;;;;11.60;6.75;;;;;12.50;100916.00;;;;5109922;28;20044;-76
2021/07/10 01:11:51;;;;;;;10.85;5.72;;;;;12.50;100894.00;;;;5109980;28;20030;-76
2021/07/10 01:14:20;;;;;;;10.43;5.00;;;;;12.40;100921.00;;;;5109287;28;20028;-77
2021/07/10 01:16:47;;;;;;;107.82;7.68;;;;;12.40;100919.00;;;;5109286;28;20495;-76
2021/07/10 01:19:20;;;;;;;6.60;5.63;;;;;12.30;100911.00;;;;5109578;28;20032;-77
2021/07/10 01:21:48;;;;;;;9.30;5.70;;;;;12.20;100927.00;;;;5109566;28;20605;-76
2021/07/10 01:24:14;;;;;;;9.98;5.35;;;;;12.20;100927.00;;;;5109543;28;20104;-76
2021/07/10 01:26:41;;;;;;;16.15;7.18;;;;;12.20;100939.00;;;;5110089;28;20042;-76
2021/07/10 01:29:08;;;;;;;12.07;6.63;;;;;12.20;100910.00;;;;5109560;28;20053;-76
2021/07/10 01:31:36;;;;;;;6.78;5.13;;;;;12.10;100913.00;;;;5108988;28;20027;-76
2021/07/10 01:34:03;;;;;;;56.50;5.43;;;;;12.10;100923.00;;;;5109185;28;20054;-75
2021/07/10 01:36:30;;;;;;;12.45;4.97;;;;;12.10;100903.00;;;;5109642;28;20031;-76
2021/07/10 01:38:57;;;;;;;7.20;5.47;;;;;11.90;100897.00;;;;5091462;28;20054;-76
2021/07/10 01:41:23;;;;;;;15.68;8.07;;;;;12.00;100910.00;;;;5109371;28;20054;-76
2021/07/10 01:43:50;;;;;;;21.63;7.13;;;;;11.90;100905.00;;;;5108885;28;20050;-75
2021/07/10 01:46:18;;;;;;;16.67;8.30;;;;;12.00;100912.00;;;;5108704;28;20590;-75
2021/07/10 01:48:45;;;;;;;11.52;7.13;;;;;12.00;100894.00;;;;5109066;28;20522;-74
2021/07/10 01:51:12;;;;;;;11.85;8.00;;;;;12.10;100882.00;;;;5107624;28;20027;-76
2021/07/10 01:53:39;;;;;;;13.80;7.07;;;;;12.00;100897.00;;;;5108307;28;20533;-77
2021/07/10 01:56:05;;;;;;;9.95;6.65;;;;;11.80;100870.00;;;;5108750;28;20039;-77
2021/07/10 01:58:32;;;;;;;15.45;8.38;;;;;11.80;100884.00;;;;5108678;28;20024;-75
2021/07/10 02:00:58;;;;;;;13.25;7.63;;;;;11.60;100897.00;;;;5108434;28;20403;-75
2021/07/10 02:03:25;;;;;;;10.63;7.68;;;;;11.70;100875.00;;;;5109059;28;20155;-75
2021/07/10 02:05:54;;;;;;;15.75;7.60;;;;;11.80;100877.00;;;;5109583;28;20085;-75
2021/07/10 02:08:20;;;;;;;6.90;5.50;;;;;11.80;100889.00;;;;5108677;28;20029;-75
2021/07/10 02:10:47;;;;;;;17.15;7.03;;;;;11.80;100867.00;;;;5111657;28;20084;-75
2021/07/10 02:13:13;;;;;;;43.38;6.47;;;;;11.80;100868.00;;;;5115524;28;20114;-75
2021/07/10 02:15:41;;;;;;;15.45;6.03;;;;;11.80;100861.00;;;;5115102;28;20027;-76
2021/07/10 02:18:07;;;;;;;8.80;4.97;;;;;11.70;100869.00;;;;5109310;28;21015;-75
2021/07/10 02:20:35;;;;;;;9.50;5.30;;;;;11.60;100898.00;;;;5108962;28;20039;-75
2021/07/10 02:23:02;;;;;;;11.50;5.55;;;;;11.60;100871.00;;;;5109146;28;20034;-76
2021/07/10 02:25:29;;;;;;;8.70;5.00;;;;;11.80;100856.00;;;;5107781;28;20023;-75
2021/07/10 02:27:56;;;;;;;10.25;6.15;;;;;11.80;100896.00;;;;5108832;28;20027;-75
2021/07/10 02:30:29;;;;;;;10.02;6.30;;;;;12.00;100892.00;;;;5108883;28;20080;-75
2021/07/10 02:32:57;;;;;;;25.15;6.43;;;;;12.00;100876.00;;;;5108062;28;20023;-75
2021/07/10 02:35:24;;;;;;;15.20;5.22;;;;;11.90;100861.00;;;;5108210;28;20066;-75
2021/07/10 02:37:50;;;;;;;24.35;6.25;;;;;11.90;100867.00;;;;5107770;28;20019;-76
2021/07/10 02:40:18;;;;;;;13.18;6.75;;;;;12.00;100847.00;;;;5107746;28;20104;-75
2021/07/10 02:42:46;;;;;;;9.57;6.70;;;;;11.90;100868.00;;;;5108045;28;20063;-76
2021/07/10 02:45:15;;;;;;;15.90;8.07;;;;;11.80;100839.00;;;;5107731;28;20028;-76
2021/07/10 02:47:42;;;;;;;8.05;5.95;;;;;11.70;100871.00;;;;5107643;28;20027;-76
2021/07/10 02:50:13;;;;;;;6.30;4.40;;;;;11.40;100875.00;;;;5107990;28;20028;-75
2021/07/10 02:52:40;;;;;;;9.38;6.47;;;;;11.70;100870.00;;;;5107332;28;20031;-76
2021/07/10 02:55:08;;;;;;;76.00;8.43;;;;;11.80;100839.00;;;;5107157;28;20035;-76
2021/07/10 02:57:34;;;;;;;19.13;7.70;;;;;11.80;100830.00;;;;5107934;28;20032;-76
2021/07/10 03:00:04;;;;;;;10.73;6.80;;;;;11.70;100828.00;;;;5107963;28;20069;-75
2021/07/10 03:02:30;;;;;;;9.55;6.85;;;;;11.80;100818.00;;;;5108023;28;20455;-75
2021/07/10 03:04:57;;;;;;;7.25;6.45;;;;;11.70;100818.00;;;;5107966;28;20019;-76
2021/07/10 03:07:23;;;;;;;10.85;7.25;;;;;11.70;100847.00;;;;5107579;28;20084;-75
2021/07/10 03:09:50;;;;;;;13.07;9.00;;;;;11.70;100851.00;;;;5107069;28;20035;-76
2021/07/10 03:12:16;;;;;;;11.68;8.48;;;;;11.70;100833.00;;;;5107762;28;20032;-76
2021/07/10 03:14:43;;;;;;;12.88;9.15;;;;;11.60;100838.00;;;;5106972;28;20066;-75
2021/07/10 03:17:10;;;;;;;12.95;8.60;;;;;11.70;100808.00;;;;5107172;28;20482;-75
2021/07/10 03:19:36;;;;;;;8.43;7.32;;;;;11.60;100814.00;;;;5089058;28;20064;-76
2021/07/10 03:22:04;;;;;;;11.05;8.35;;;;;11.50;100847.00;;;;5106922;28;20024;-76
2021/07/10 03:24:30;;;;;;;14.75;8.98;;;;;11.60;100845.00;;;;5106499;28;20036;-76
2021/07/10 03:26:57;;;;;;;9.25;7.72;;;;;11.50;100837.00;;;;5108013;28;20031;-75
2021/07/10 03:29:24;;;;;;;12.90;9.20;;;;;11.50;100844.00;;;;5108087;28;20046;-75
2021/07/10 03:31:50;;;;;;;9.38;8.25;;;;;11.40;100835.00;;;;5107113;28;20024;-76
2021/07/10 03:34:17;;;;;;;11.45;8.65;;;;;11.40;100845.00;;;;5107156;28;20027;-76
2021/07/10 03:36:43;;;;;;;13.13;8.93;;;;;11.50;100820.00;;;;5107173;28;20028;-76
2021/07/10 03:39:10;;;;;;;10.63;7.80;;;;;11.40;100826.00;;;;5106671;28;20031;-76
2021/07/10 03:41:36;;;;;;;15.98;8.95;;;;;11.40;100822.00;;;;5107665;28;20043;-76
2021/07/10 03:44:03;;;;;;;12.90;9.32;;;;;11.40;100823.00;;;;5106746;28;20562;-76
2021/07/10 03:46:30;;;;;;;14.60;8.68;;;;;11.30;100811.00;;;;5106635;28;20020;-75
2021/07/10 03:48:56;;;;;;;14.57;9.30;;;;;11.40;100830.00;;;;5106880;28;20043;-76
2021/07/10 03:51:24;;;;;;;9.65;8.60;;;;;11.30;100815.00;;;;5106864;28;20078;-75
2021/07/10 03:53:50;;;;;;;14.98;8.75;;;;;11.30;100826.00;;;;5107403;28;20515;-75
2021/07/10 03:56:19;;;;;;;11.00;8.73;;;;;11.30;100805.00;;;;5107479;28;20077;-77
2021/07/10 03:58:47;;;;;;;11.45;9.23;;;;;11.30;100827.00;;;;5107056;28;20039;-75
2021/07/10 04:01:13;;;;;;;17.25;9.55;;;;;11.10;100826.00;;;;5107050;28;20016;-75
2021/07/10 04:03:40;;;;;;;11.32;8.88;;;;;11.20;100810.00;;;;5106969;28;20058;-76
2021/07/10 04:06:07;;;;;;;14.00;9.88;;;;;11.20;100803.00;;;;5107295;28;20058;-76
2021/07/10 04:08:33;;;;;;;12.65;10.00;;;;;11.00;100797.00;;;;5107094;28;20063;-76
2021/07/10 04:11:00;;;;;;;14.98;8.82;;;;;11.00;100798.00;;;;5106920;28;20032;-76
2021/07/10 04:13:27;;;;;;;13.40;9.95;;;;;11.00;100817.00;;;;5106940;28;20038;-76
2021/07/10 04:15:53;;;;;;;13.23;8.38;;;;;11.00;100837.00;;;;5109445;28;20055;-75
2021/07/10 04:18:20;;;;;;;16.20;9.77;;;;;11.00;100834.00;;;;5110808;28;20027;-76
2021/07/10 04:20:46;;;;;;;11.00;8.93;;;;;10.90;100815.00;;;;5110782;28;20390;-76
2021/07/10 04:23:13;;;;;;;11.73;8.75;;;;;10.80;100813.00;;;;5111200;28;20382;-76
2021/07/10 04:25:39;;;;;;;12.82;8.85;;;;;10.80;100800.00;;;;5110182;28;20027;-76
2021/07/10 04:28:06;;;;;;;12.95;9.32;;;;;10.70;100820.00;;;;5110943;28;20391;-76
2021/07/10 04:30:32;;;;;;;12.45;8.32;;;;;10.70;100796.00;;;;5110258;28;20031;-75
2021/07/10 04:32:59;;;;;;;14.43;9.77;;;;;10.70;100815.00;;;;5110150;28;20051;-75
2021/07/10 04:35:26;;;;;;;11.65;9.27;;;;;10.80;100802.00;;;;5110214;28;20455;-75
2021/07/10 04:37:52;;;;;;;12.98;8.88;;;;;10.70;100799.00;;;;5110715;28;20783;-76
2021/07/10 04:40:19;;;;;;;11.52;9.20;;;;;10.70;100799.00;;;;5110200;28;20107;-76
2021/07/10 04:42:48;;;;;;;18.48;9.80;;;;;10.80;100830.00;;;;5110485;28;20055;-76
2021/07/10 04:45:15;;;;;;;11.32;9.30;;;;;10.70;100819.00;;;;5110425;28;20031;-75
2021/07/10 04:47:42;;;;;;;13.75;7.90;;;;;10.60;100819.00;;;;5110118;28;20028;-75
2021/07/10 04:50:11;;;;;;;9.18;8.05;;;;;10.60;100819.00;;;;5110392;28;20020;-76
2021/07/10 04:52:40;;;;;;;9.55;8.52;;;;;10.60;100818.00;;;;5110393;28;20036;-75
2021/07/10 04:55:07;;;;;;;11.73;8.32;;;;;10.60;100801.00;;;;5109773;28;20043;-75
2021/07/10 04:57:34;;;;;;;11.38;8.80;;;;;10.50;100810.00;;;;5110019;28;20559;-76
2021/07/10 05:00:00;;;;;;;13.60;8.82;;;;;10.50;100810.00;;;;5110037;28;20026;-76
2021/07/10 05:02:27;;;;;;;13.52;8.45;;;;;10.50;100786.00;;;;5109670;28;20445;-76
2021/07/10 05:04:53;;;;;;;12.48;8.88;;;;;10.40;100822.00;;;;5091442;28;20052;-76
2021/07/10 05:07:20;;;;;;;13.55;8.73;;;;;10.30;100801.00;;;;5091785;28;20067;-76
2021/07/10 05:09:46;;;;;;;10.07;8.77;;;;;10.30;100786.00;;;;5109850;28;20062;-76
2021/07/10 05:12:15;;;;;;;12.95;8.18;;;;;10.30;100794.00;;;;5109932;28;20035;-76
2021/07/10 05:14:41;;;;;;;12.35;8.80;;;;;10.30;100802.00;;;;5110235;28;20150;-76
2021/07/10 05:17:08;;;;;;;15.82;9.07;;;;;10.30;100806.00;;;;5109510;28;20026;-76
2021/07/10 05:19:34;;;;;;;12.20;8.40;;;;;10.10;100779.00;;;;5109637;28;20395;-76
2021/07/10 05:22:01;;;;;;;13.18;8.95;;;;;10.10;100785.00;;;;5109929;28;20024;-76
2021/07/10 05:24:27;;;;;;;12.75;9.15;;;;;10.20;100775.00;;;;5109322;28;20031;-76
2021/07/10 05:26:54;;;;;;;11.43;8.75;;;;;10.30;100795.00;;;;5109154;28;20055;-76
2021/07/10 05:29:21;;;;;;;14.02;8.93;;;;;10.20;100787.00;;;;5109541;28;20065;-76
2021/07/10 05:31:47;;;;;;;14.27;9.27;;;;;10.30;100800.00;;;;5109833;28;20032;-75
2021/07/10 05:34:14;;;;;;;21.40;8.95;;;;;10.20;100773.00;;;;5108841;28;20119;-76
2021/07/10 05:36:40;;;;;;;11.82;9.00;;;;;10.20;100791.00;;;;5109414;28;20101;-75
2021/07/10 05:39:07;;;;;;;13.80;8.45;;;;;10.10;100800.00;;;;5109034;28;20497;-76
2021/07/10 05:41:34;;;;;;;11.80;8.63;;;;;10.10;100760.00;;;;5109924;28;20495;-76
2021/07/10 05:44:00;;;;;;;16.45;9.40;;;;;10.10;100758.00;;;;5108418;28;20051;-76
2021/07/10 05:46:27;;;;;;;12.57;9.30;;;;;10.20;100800.00;;;;5109175;28;20104;-76
2021/07/10 05:48:53;;;;;;;13.95;7.78;;;;;10.10;100761.00;;;;5109253;28;20548;-76
2021/07/10 05:51:20;;;;;;;10.45;8.20;;;;;10.10;100788.00;;;;5109004;28;20067;-76
2021/07/10 05:53:47;;;;;;;11.23;8.52;;;;;10.10;100774.00;;;;5108703;28;20119;-76
2021/07/10 05:56:13;;;;;;;11.63;8.50;;;;;10.10;100763.00;;;;5108511;28;20027;-77
2021/07/10 05:58:40;;;;;;;9.30;7.75;;;;;10.10;100802.00;;;;5108550;28;20035;-76
2021/07/10 06:01:06;;;;;;;15.00;9.20;;;;;10.10;100797.00;;;;5108771;28;20030;-76
2021/07/10 06:03:33;;;;;;;16.30;9.93;;;;;10.20;100786.00;;;;5108416;28;20548;-77
2021/07/10 06:05:59;;;;;;;10.82;8.88;;;;;10.20;100780.00;;;;5108964;28;20076;-77
2021/07/10 06:08:26;;;;;;;10.15;8.35;;;;;10.10;100788.00;;;;5108717;28;20051;-77
2021/07/10 06:10:52;;;;;;;13.10;8.70;;;;;10.10;100795.00;;;;5108363;28;20032;-75
2021/07/10 06:13:19;;;;;;;12.40;8.10;;;;;10.10;100802.00;;;;5089907;28;20041;-75
2021/07/10 06:15:45;;;;;;;11.65;8.70;;;;;10.10;100781.00;;;;5109003;28;20030;-76
2021/07/10 06:18:12;;;;;;;12.65;9.25;;;;;10.10;100782.00;;;;5108494;28;20028;-75
2021/07/10 06:20:39;;;;;;;14.02;9.05;;;;;10.10;100798.00;;;;5108563;28;20031;-75
2021/07/10 06:23:07;;;;;;;10.90;8.25;;;;;10.10;100797.00;;;;5108208;28;20157;-75
2021/07/10 06:25:36;;;;;;;11.25;8.23;;;;;10.10;100818.00;;;;5107939;28;20059;-75
2021/07/10 06:28:06;;;;;;;10.48;9.00;;;;;10.00;100793.00;;;;5108166;28;20428;-75
2021/07/10 06:30:33;;;;;;;11.57;8.05;;;;;10.00;100780.00;;;;5108653;28;20027;-75
2021/07/10 06:33:00;;;;;;;12.40;8.65;;;;;10.10;100808.00;;;;5108602;28;20038;-76
2021/07/10 06:35:27;;;;;;;13.45;8.48;;;;;10.10;100807.00;;;;5108087;28;20059;-77
2021/07/10 06:37:53;;;;;;;9.90;8.55;;;;;10.20;100786.00;;;;5107108;28;20053;-75
2021/07/10 06:40:20;;;;;;;11.15;8.48;;;;;10.20;100772.00;;;;5108203;28;20558;-75
2021/07/10 06:42:48;;;;;;;13.38;8.85;;;;;10.20;100806.00;;;;5108140;28;20398;-75
2021/07/10 06:45:17;;;;;;;11.98;8.55;;;;;10.30;100804.00;;;;5107575;28;20039;-75
2021/07/10 06:47:45;;;;;;;10.60;8.50;;;;;10.30;100790.00;;;;5107792;28;20659;-76
2021/07/10 06:50:14;;;;;;;13.25;8.05;;;;;10.20;100792.00;;;;5108304;28;20040;-75
2021/07/10 06:52:41;;;;;;;16.30;8.20;;;;;10.20;100789.00;;;;5108018;28;20394;-76
2021/07/10 06:55:09;;;;;;;10.38;7.97;;;;;10.30;100777.00;;;;5107491;28;20035;-75
2021/07/10 06:57:36;;;;;;;8.93;7.95;;;;;10.20;100786.00;;;;5108069;28;20505;-75
2021/07/10 07:00:23;;;;;;;12.32;7.80;;;;;10.20;100799.00;;;;5107937;28;20486;-75
2021/07/10 07:02:50;;;;;;;11.95;8.80;;;;;10.20;100768.00;;;;5107804;28;20039;-76
2021/07/10 07:05:16;;;;;;;12.98;8.57;;;;;10.30;100784.00;;;;5107485;28;20024;-76
2021/07/10 07:07:43;;;;;;;10.52;7.43;;;;;10.20;100794.00;;;;5107761;28;20031;-75
2021/07/10 07:10:11;;;;;;;13.10;8.40;;;;;10.20;100780.00;;;;5108030;28;20023;-75
2021/07/10 07:12:39;;;;;;;16.23;8.15;;;;;10.20;100804.00;;;;5107488;28;20547;-77
2021/07/10 07:15:08;;;;;;;11.63;7.75;;;;;10.20;100805.00;;;;5107342;28;20073;-75
2021/07/10 07:17:35;;;;;;;11.98;8.15;;;;;10.20;100823.00;;;;5107652;28;20038;-75
2021/07/10 07:20:03;;;;;;;8.85;7.47;;;;;10.20;100781.00;;;;5108103;28;21116;-76
2021/07/10 07:22:29;;;;;;;12.30;8.48;;;;;10.20;100790.00;;;;5107744;28;20046;-75
2021/07/10 07:24:56;;;;;;;11.07;8.10;;;;;10.20;100801.00;;;;5106665;28;20028;-75
2021/07/10 07:27:22;;;;;;;15.05;8.50;;;;;10.30;100778.00;;;;5107104;28;20099;-75
2021/07/10 07:29:49;;;;;;;10.57;8.38;;;;;10.30;100804.00;;;;5107558;28;20070;-77
2021/07/10 07:32:16;;;;;;;9.63;7.65;;;;;10.20;100797.00;;;;5107112;28;20027;-75
2021/07/10 07:34:47;;;;;;;13.73;8.52;;;;;10.30;100787.00;;;;5107427;28;20027;-76
2021/07/10 07:37:17;;;;;;;10.18;7.63;;;;;10.20;100783.00;;;;5107510;28;20440;-76
2021/07/10 07:39:46;;;;;;;9.45;8.05;;;;;10.20;100787.00;;;;5107291;28;20030;-75
2021/07/10 07:42:16;;;;;;;11.20;7.53;;;;;10.10;100803.00;;;;5107483;28;20536;-77
2021/07/10 07:44:44;;;;;;;9.38;7.43;;;;;10.10;100798.00;;;;5106576;28;20506;-77
2021/07/10 07:47:13;;;;;;;11.35;8.57;;;;;10.20;100799.00;;;;5107508;28;20023;-77
2021/07/10 07:49:40;;;;;;;10.82;7.10;;;;;10.10;100791.00;;;;5109437;28;20027;-78
2021/07/10 07:52:07;;;;;;;25.95;8.82;;;;;10.10;100798.00;;;;5111356;28;20051;-77
2021/07/10 07:54:35;;;;;;;15.70;8.70;;;;;10.00;100802.00;;;;5111252;28;20080;-77
2021/07/10 07:57:02;;;;;;;12.43;8.15;;;;;10.00;100775.00;;;;5111031;28;20035;-75
2021/07/10 07:59:29;;;;;;;13.57;7.97;;;;;10.00;100791.00;;;;5092612;28;20452;-75
2021/07/10 08:01:57;;;;;;;11.32;8.10;;;;;10.00;100806.00;;;;5112046;28;20126;-76
2021/07/10 08:04:23;;;;;;;11.25;8.50;;;;;10.10;100775.00;;;;5111030;28;20051;-76
2021/07/10 08:06:50;;;;;;;12.73;8.75;;;;;10.10;100773.00;;;;5111531;28;20115;-76
2021/07/10 08:09:17;;;;;;;15.90;8.20;;;;;10.00;100779.00;;;;5111219;28;20578;-76
2021/07/10 08:11:44;;;;;;;13.07;8.30;;;;;10.10;100781.00;;;;5111859;28;20028;-77
2021/07/10 08:14:12;;;;;;;12.52;7.82;;;;;10.10;100797.00;;;;5123600;28;20027;-76
2021/07/10 08:16:39;;;;;;;13.18;8.70;;;;;10.10;100783.00;;;;5125452;28;20474;-76
2021/07/10 08:19:06;;;;;;;15.25;8.75;;;;;10.10;100795.00;;;;5116257;28;20032;-76
2021/07/10 08:21:33;;;;;;;12.38;9.23;;;;;10.10;100783.00;;;;5110568;28;20038;-76
2021/07/10 08:24:01;;;;;;;13.23;8.65;;;;;10.20;100816.00;;;;5111166;28;20122;-76
2021/07/10 08:26:29;;;;;;;10.32;8.63;;;;;10.10;100814.00;;;;5110666;28;20575;-76
2021/07/10 08:28:56;;;;;;;13.68;8.32;;;;;10.10;100804.00;;;;5110621;28;20027;-77
2021/07/10 08:31:23;;;;;;;11.55;8.70;;;;;10.20;100793.00;;;;5110729;28;20054;-77
2021/07/10 08:33:49;;;;;;;11.52;8.95;;;;;10.30;100795.00;;;;5110347;28;20039;-77
2021/07/10 08:36:16;;;;;;;14.63;8.45;;;;;10.40;100788.00;;;;5110532;28;20077;-77
2021/07/10 08:38:42;;;;;;;9.85;8.00;;;;;10.30;100821.00;;;;5110390;28;20024;-77
2021/07/10 08:41:11;;;;;;;13.75;8.60;;;;;10.20;100823.00;;;;5110595;28;20545;-76
2021/07/10 08:43:39;;;;;;;12.18;8.13;;;;;10.20;100797.00;;;;5111257;28;20110;-75
2021/07/10 08:46:07;;;;;;;15.00;8.93;;;;;10.20;100813.00;;;;5110534;28;20617;-75
2021/07/10 08:48:35;;;;;;;12.93;8.25;;;;;10.30;100798.00;;;;5110415;28;20028;-75
2021/07/10 08:51:06;;;;;;;15.30;7.85;;;;;10.30;100808.00;;;;5109950;28;20027;-75
2021/07/10 08:53:34;;;;;;;13.00;8.52;;;;;10.30;100809.00;;;;5110088;28;20023;-75
2021/07/10 08:56:02;;;;;;;14.10;8.48;;;;;10.40;100824.00;;;;5110471;28;20045;-75
2021/07/10 08:58:28;;;;;;;10.63;7.45;;;;;10.20;100814.00;;;;5110221;28;20088;-75
2021/07/10 09:00:56;;;;;;;11.93;8.77;;;;;10.10;100803.00;;;;5109486;28;20027;-75
2021/07/10 09:03:22;;;;;;;10.55;8.35;;;;;10.20;100826.00;;;;5109753;28;20048;-75
2021/07/10 09:05:49;;;;;;;10.35;8.20;;;;;10.30;100808.00;;;;5110371;28;20031;-75
2021/07/10 09:08:24;;;;;;;10.43;8.32;;;;;10.40;100812.00;;;;5110550;28;20518;-75
2021/07/10 09:11:01;;;;;;;13.25;8.73;;;;;10.20;100832.00;;;;5109899;28;20580;-77
2021/07/10 09:13:48;;;;;;;11.10;7.88;;;;;10.20;100810.00;;;;5109775;28;20046;-75
2021/07/10 09:16:18;;;;;;;13.18;7.97;;;;;10.20;100843.00;;;;5109775;28;20081;-75
2021/07/10 09:18:56;;;;;;;13.05;8.35;;;;;10.10;100831.00;;;;5109473;28;20032;-75
2021/07/10 09:21:50;;;;;;;11.18;8.48;;;;;10.20;100849.00;;;;5109308;28;20093;-77
2021/07/10 09:24:32;;;;;;;9.00;8.02;;;;;10.10;100845.00;;;;5109568;28;20041;-77
2021/07/10 09:27:09;;;;;;;12.73;8.43;;;;;10.10;100823.00;;;;5109476;28;20508;-77
2021/07/10 09:29:38;;;;;;;13.68;10.85;;;;;10.30;100845.00;;;;5109270;28;20106;-77
2021/07/10 09:32:07;;;;;;;14.13;11.40;;;;;10.20;100839.00;;;;5110070;28;20558;-78
2021/07/10 09:34:39;;;;;;;12.73;10.05;;;;;10.20;100831.00;;;;5109881;28;20024;-77
2021/07/10 09:37:11;;;;;;;9.90;8.10;;;;;10.20;100846.00;;;;5108548;28;20032;-77
2021/07/10 09:39:45;;;;;;;16.50;12.80;;;;;10.10;100851.00;;;;5108215;28;20028;-76
2021/07/10 09:42:15;;;;;;;14.05;9.95;;;;;10.10;100834.00;;;;5106453;28;20076;-76
2021/07/10 09:44:53;;;;;;;11.32;8.63;;;;;10.20;100839.00;;;;5107955;28;20414;-76
2021/07/10 09:47:28;;;;;;;17.20;10.25;;;;;10.10;100858.00;;;;5109002;28;20437;-76
2021/07/10 09:49:56;;;;;;;14.50;12.75;;;;;10.30;100856.00;;;;5108853;28;20060;-77
2021/07/10 09:52:25;;;;;;;20.80;13.02;;;;;10.30;100869.00;;;;5108208;28;20020;-76
2021/07/10 09:54:55;;;;;;;19.73;17.73;;;;;10.30;100850.00;;;;5108122;28;20154;-76
2021/07/10 09:57:27;;;;;;;15.15;11.23;;;;;10.30;100853.00;;;;5107996;28;20506;-76
2021/07/10 09:59:57;;;;;;;;;;;;;10.10;100863.00;;;;5108979;28;20065;-74
2021/07/10 10:02:29;;;;;;;13.02;10.32;;;;;10.30;100875.00;;;;5107782;28;19926;-76
2021/07/10 10:05:11;;;;;;;10.27;8.57;;;;;10.30;100879.00;;;;5107216;28;20502;-75
2021/07/10 10:07:47;;;;;;;;;;;;;10.20;100877.00;;;;5108341;28;20032;-76
2021/07/10 10:10:24;;;;;;;16.90;12.73;;;;;10.40;100885.00;;;;5107989;28;20347;-75
2021/07/10 10:13:06;;;;;;;12.70;8.70;;;;;10.20;100878.00;;;;5106402;28;20038;-75
2021/07/10 10:15:48;;;;;;;10.27;8.85;;;;;10.40;100889.00;;;;5107844;28;20448;-76
2021/07/10 10:18:17;;;;;;;13.50;10.02;;;;;10.30;100893.00;;;;5108468;28;20052;-76
2021/07/10 10:20:45;;;;;;;11.82;8.85;;;;;10.40;100892.00;;;;5108388;28;20039;-75
2021/07/10 10:23:14;;;;;;;17.88;9.57;;;;;10.30;100874.00;;;;5107981;28;20040;-75
2021/07/10 10:25:41;;;;;;;16.13;9.52;;;;;10.40;100874.00;;;;5108094;28;20575;-75
2021/07/10 10:28:18;;;;;;;14.55;8.90;;;;;10.20;100875.00;;;;5105080;28;20034;-75
2021/07/10 10:30:51;;;;;;;9.73;8.70;;;;;10.20;100902.00;;;;5105491;28;20032;-75
2021/07/10 10:33:18;;;;;;;13.15;8.82;;;;;10.20;100876.00;;;;5101521;28;20023;-75
2021/07/10 10:35:53;;;;;;;16.48;9.18;;;;;10.20;100885.00;;;;5097101;28;21144;-75
2021/07/10 10:38:20;;;;;;;17.48;9.43;;;;;10.30;100905.00;;;;5095013;28;20016;-76
2021/07/10 10:40:51;;;;;;;28.35;10.80;;;;;10.40;100910.00;;;;5097714;28;20031;-76
2021/07/10 10:43:19;;;;;;;14.02;9.07;;;;;10.50;100903.00;;;;5095826;28;20036;-75
2021/07/10 10:45:47;;;;;;;13.05;9.05;;;;;10.50;100904.00;;;;5100353;28;20044;-75
2021/07/10 10:48:35;;;;;;;19.30;9.55;;;;;10.50;100924.00;;;;5106710;28;20055;-75
2021/07/10 10:51:21;;;;;;;12.93;9.02;;;;;10.50;100893.00;;;;5107502;28;20031;-77
2021/07/10 10:53:48;;;;;;;12.85;9.77;;;;;10.80;100904.00;;;;5107675;28;20032;-76
2021/07/10 10:56:40;;;;;;;11.25;8.65;;;;;11.40;100896.00;;;;5108285;28;20045;-76
2021/07/10 10:59:28;;;;;;;14.95;8.23;;;;;12.60;100868.00;;;;5107364;28;20059;-77
2021/07/10 11:01:57;;;;;;;14.48;7.18;;;;;13.50;100823.00;;;;5107165;28;20028;-76
2021/07/10 11:04:45;;;;;;;12.10;6.53;;;;;14.00;100822.00;;;;5107336;28;20043;-75
2021/07/10 11:07:38;;;;;;;16.85;6.63;;;;;14.20;100872.00;;;;5107938;28;20070;-77
2021/07/10 11:10:15;;;;;;;10.35;6.90;;;;;13.70;100849.00;;;;5102965;28;20040;-77
2021/07/10 11:12:47;;;;;;;11.43;7.57;;;;;14.50;100837.00;;;;5107634;28;20047;-76
2021/07/10 11:15:27;;;;;;;18.35;12.38;;;;;15.00;100831.00;;;;5107045;28;20031;-77
2021/07/10 11:17:55;;;;;;;12.25;6.60;;;;;14.80;100814.00;;;;5107906;28;20528;-77
2021/07/10 11:20:43;;;;;;;9.43;6.38;;;;;15.90;100835.00;;;;5107529;28;20119;-77
2021/07/10 11:23:30;;;;;;;13.15;5.70;;;;;16.00;100830.00;;;;5107399;28;20157;-77
2021/07/10 11:25:59;;;;;;;7.43;5.32;;;;;16.80;100808.00;;;;5107365;28;20023;-76
2021/07/10 11:28:31;;;;;;;10.63;5.50;;;;;18.00;100768.00;;;;5107328;28;20035;-77
2021/07/10 11:31:01;;;;;;;11.18;5.32;;;;;18.20;100763.00;;;;5107496;28;21169;-77
2021/07/10 11:33:56;;;;;;;11.38;5.50;;;;;18.70;100794.00;;;;5107035;28;20077;-76
2021/07/10 11:36:34;;;;;;;8.93;5.00;;;;;19.60;100770.00;;;;5107241;28;20023;-76
2021/07/10 11:39:03;;;;;;;6.63;5.05;;;;;19.70;100759.00;;;;5107327;28;20657;-76
2021/07/10 11:41:34;;;;;;;5.80;4.50;;;;;20.20;100745.00;;;;5107211;28;20055;-77
2021/07/10 11:44:15;;;;;;;10.88;4.80;;;;;21.00;100738.00;;;;5107137;28;20024;-77
2021/07/10 11:46:56;;;;;;;9.63;4.95;;;;;21.50;100740.00;;;;5107154;28;20380;-77
2021/07/10 11:49:42;;;;;;;9.05;4.70;;;;;22.20;100766.00;;;;5089091;28;20028;-77
2021/07/10 11:52:17;;;;;;;7.15;4.43;;;;;21.90;100762.00;;;;5105940;28;20032;-77
2021/07/10 11:54:59;;;;;;;8.57;4.88;;;;;22.00;100750.00;;;;5107072;28;20034;-77
2021/07/10 11:57:47;;;;;;;5.72;4.35;;;;;22.10;100736.00;;;;5106552;28;20035;-77
2021/07/10 12:00:14;;;;;;;8.73;5.07;;;;;22.20;100784.00;;;;5106844;28;20063;-77
2021/07/10 12:02:42;;;;;;;9.95;5.47;;;;;22.50;100786.00;;;;5106200;28;20047;-77
2021/07/10 12:05:22;;;;;;;9.60;6.40;;;;;23.90;100813.00;;;;5106515;28;20404;-77
2021/07/10 12:07:55;;;;;;;9.63;6.30;;;;;24.20;100829.00;;;;5106803;28;20050;-79
2021/07/10 12:10:37;;;;;;;13.35;6.38;;;;;24.90;100821.00;;;;5107032;28;20031;-78